sensor_id;sensor_type;location;lat;lon;timestamp;P1;durP1;ratioP1;P2;durP2;ratioP2
80748;SDS011;70145;53.746;9.970;2023-09-07T00:01:42;9.33;;;6.93;;
80748;SDS011;70145;53.746;9.970;2023-09-07T00:04:07;9.80;;;7.95;;
80748;SDS011;70145;53.746;9.970;2023-09-07T00:06:33;9.17;;;6.77;;
80748;SDS011;70145;53.746;9.970;2023-09-07T00:08:59;9.10;;;7.10;;
80748;SDS011;70145;53.746;9.970;2023-09-07T00:11:25;9.48;;;7.05;;
80748;SDS011;70145;53.746;9.970;2023-09-07T00:13:50;8.88;;;7.30;;
80748;SDS011;70145;53.746;9.970;2023-09-07T00:16:15;9.65;;;6.93;;
80748;SDS011;70145;53.746;9.970;2023-09-07T00:18:41;10.43;;;7.13;;
80748;SDS011;70145;53.746;9.970;2023-09-07T00:21:06;11.43;;;7.83;;
80748;SDS011;70145;53.746;9.970;2023-09-07T00:23:31;10.33;;;6.80;;
80748;SDS011;70145;53.746;9.970;2023-09-07T00:25:57;9.53;;;7.13;;
80748;SDS011;70145;53.746;9.970;2023-09-07T00:28:22;7.73;;;6.63;;
80748;SDS011;70145;53.746;9.970;2023-09-07T00:30:47;8.73;;;6.47;;
80748;SDS011;70145;53.746;9.970;2023-09-07T00:33:13;10.77;;;7.22;;
80748;SDS011;70145;53.746;9.970;2023-09-07T00:35:38;8.10;;;7.27;;
80748;SDS011;70145;53.746;9.970;2023-09-07T00:38:03;9.10;;;6.67;;
80748;SDS011;70145;53.746;9.970;2023-09-07T00:40:29;9.70;;;6.78;;
80748;SDS011;70145;53.746;9.970;2023-09-07T00:42:55;8.77;;;7.15;;
80748;SDS011;70145;53.746;9.970;2023-09-07T00:45:20;9.25;;;6.35;;
80748;SDS011;70145;53.746;9.970;2023-09-07T00:47:45;8.37;;;6.60;;
80748;SDS011;70145;53.746;9.970;2023-09-07T00:50:11;7.88;;;6.95;;
80748;SDS011;70145;53.746;9.970;2023-09-07T00:52:42;9.45;;;6.95;;
80748;SDS011;70145;53.746;9.970;2023-09-07T00:55:08;8.32;;;6.13;;
80748;SDS011;70145;53.746;9.970;2023-09-07T00:57:34;7.50;;;6.32;;
80748;SDS011;70145;53.746;9.970;2023-09-07T01:00:00;8.38;;;6.25;;
80748;SDS011;70145;53.746;9.970;2023-09-07T01:02:25;8.77;;;6.38;;
80748;SDS011;70145;53.746;9.970;2023-09-07T01:04:51;8.45;;;5.97;;
80748;SDS011;70145;53.746;9.970;2023-09-07T01:07:18;7.72;;;6.60;;
80748;SDS011;70145;53.746;9.970;2023-09-07T01:09:50;9.18;;;6.35;;
80748;SDS011;70145;53.746;9.970;2023-09-07T01:12:19;8.85;;;6.13;;
80748;SDS011;70145;53.746;9.970;2023-09-07T01:14:44;7.35;;;5.82;;
80748;SDS011;70145;53.746;9.970;2023-09-07T01:17:11;8.70;;;6.90;;
80748;SDS011;70145;53.746;9.970;2023-09-07T01:19:38;7.85;;;6.47;;
80748;SDS011;70145;53.746;9.970;2023-09-07T01:22:04;8.38;;;6.15;;
80748;SDS011;70145;53.746;9.970;2023-09-07T01:24:33;7.80;;;6.75;;
80748;SDS011;70145;53.746;9.970;2023-09-07T01:27:01;7.40;;;5.80;;
80748;SDS011;70145;53.746;9.970;2023-09-07T01:29:28;9.10;;;6.53;;
80748;SDS011;70145;53.746;9.970;2023-09-07T01:31:54;8.65;;;6.57;;
80748;SDS011;70145;53.746;9.970;2023-09-07T01:34:20;9.30;;;7.07;;
80748;SDS011;70145;53.746;9.970;2023-09-07T01:36:45;7.80;;;5.53;;
80748;SDS011;70145;53.746;9.970;2023-09-07T01:39:11;7.87;;;6.60;;
80748;SDS011;70145;53.746;9.970;2023-09-07T01:41:36;8.23;;;6.10;;
80748;SDS011;70145;53.746;9.970;2023-09-07T01:44:02;9.00;;;6.70;;
80748;SDS011;70145;53.746;9.970;2023-09-07T01:46:27;8.00;;;7.03;;
80748;SDS011;70145;53.746;9.970;2023-09-07T01:48:52;8.70;;;6.53;;
80748;SDS011;70145;53.746;9.970;2023-09-07T01:51:20;8.00;;;6.57;;
80748;SDS011;70145;53.746;9.970;2023-09-07T01:53:49;12.05;;;6.93;;
80748;SDS011;70145;53.746;9.970;2023-09-07T01:56:17;10.18;;;7.07;;
80748;SDS011;70145;53.746;9.970;2023-09-07T01:58:42;7.30;;;6.57;;
80748;SDS011;70145;53.746;9.970;2023-09-07T02:01:23;8.10;;;6.22;;
80748;SDS011;70145;53.746;9.970;2023-09-07T02:04:01;10.43;;;5.97;;
80748;SDS011;70145;53.746;9.970;2023-09-07T02:06:26;7.05;;;6.13;;
80748;SDS011;70145;53.746;9.970;2023-09-07T02:08:52;7.45;;;6.10;;
80748;SDS011;70145;53.746;9.970;2023-09-07T02:11:17;7.82;;;6.05;;
80748;SDS011;70145;53.746;9.970;2023-09-07T02:13:43;8.40;;;5.83;;
80748;SDS011;70145;53.746;9.970;2023-09-07T02:16:09;9.82;;;6.40;;
80748;SDS011;70145;53.746;9.970;2023-09-07T02:18:35;8.18;;;6.68;;
80748;SDS011;70145;53.746;9.970;2023-09-07T02:21:05;6.82;;;6.13;;
80748;SDS011;70145;53.746;9.970;2023-09-07T02:23:31;8.80;;;6.35;;
80748;SDS011;70145;53.746;9.970;2023-09-07T02:25:57;8.10;;;6.03;;
80748;SDS011;70145;53.746;9.970;2023-09-07T02:28:23;7.05;;;6.38;;
80748;SDS011;70145;53.746;9.970;2023-09-07T02:30:49;8.50;;;6.85;;
80748;SDS011;70145;53.746;9.970;2023-09-07T02:33:14;8.43;;;6.07;;
80748;SDS011;70145;53.746;9.970;2023-09-07T02:35:40;8.17;;;6.07;;
80748;SDS011;70145;53.746;9.970;2023-09-07T02:38:05;9.17;;;6.27;;
80748;SDS011;70145;53.746;9.970;2023-09-07T02:40:30;7.13;;;5.43;;
80748;SDS011;70145;53.746;9.970;2023-09-07T02:42:55;6.33;;;5.33;;
80748;SDS011;70145;53.746;9.970;2023-09-07T02:45:21;7.60;;;5.83;;
80748;SDS011;70145;53.746;9.970;2023-09-07T02:47:46;7.13;;;5.78;;
80748;SDS011;70145;53.746;9.970;2023-09-07T02:50:12;6.23;;;5.37;;
80748;SDS011;70145;53.746;9.970;2023-09-07T02:52:39;7.10;;;5.68;;
80748;SDS011;70145;53.746;9.970;2023-09-07T02:55:05;7.45;;;5.00;;
80748;SDS011;70145;53.746;9.970;2023-09-07T02:57:31;6.28;;;5.03;;
80748;SDS011;70145;53.746;9.970;2023-09-07T02:59:56;4.97;;;4.47;;
80748;SDS011;70145;53.746;9.970;2023-09-07T03:02:22;6.75;;;5.15;;
80748;SDS011;70145;53.746;9.970;2023-09-07T03:04:47;5.40;;;4.90;;
80748;SDS011;70145;53.746;9.970;2023-09-07T03:07:13;5.88;;;5.28;;
80748;SDS011;70145;53.746;9.970;2023-09-07T03:09:38;6.75;;;5.72;;
80748;SDS011;70145;53.746;9.970;2023-09-07T03:12:03;6.10;;;4.90;;
80748;SDS011;70145;53.746;9.970;2023-09-07T03:14:29;5.63;;;4.50;;
80748;SDS011;70145;53.746;9.970;2023-09-07T03:16:54;5.63;;;4.70;;
80748;SDS011;70145;53.746;9.970;2023-09-07T03:19:20;6.35;;;4.80;;
80748;SDS011;70145;53.746;9.970;2023-09-07T03:21:45;7.43;;;6.70;;
80748;SDS011;70145;53.746;9.970;2023-09-07T03:24:10;5.80;;;5.17;;
80748;SDS011;70145;53.746;9.970;2023-09-07T03:26:36;5.53;;;4.63;;
80748;SDS011;70145;53.746;9.970;2023-09-07T03:29:01;5.13;;;4.63;;
80748;SDS011;70145;53.746;9.970;2023-09-07T03:31:26;5.00;;;4.13;;
80748;SDS011;70145;53.746;9.970;2023-09-07T03:33:51;5.30;;;4.77;;
80748;SDS011;70145;53.746;9.970;2023-09-07T03:36:17;6.00;;;4.80;;
80748;SDS011;70145;53.746;9.970;2023-09-07T03:38:42;8.00;;;4.72;;
80748;SDS011;70145;53.746;9.970;2023-09-07T03:41:08;4.40;;;4.00;;
80748;SDS011;70145;53.746;9.970;2023-09-07T03:43:33;6.77;;;4.50;;
80748;SDS011;70145;53.746;9.970;2023-09-07T03:45:58;6.20;;;5.60;;
80748;SDS011;70145;53.746;9.970;2023-09-07T03:48:24;5.00;;;4.40;;
80748;SDS011;70145;53.746;9.970;2023-09-07T03:50:49;7.17;;;4.93;;
80748;SDS011;70145;53.746;9.970;2023-09-07T03:53:14;6.03;;;4.70;;
80748;SDS011;70145;53.746;9.970;2023-09-07T03:55:43;5.57;;;4.90;;
80748;SDS011;70145;53.746;9.970;2023-09-07T03:58:09;5.53;;;4.28;;
80748;SDS011;70145;53.746;9.970;2023-09-07T04:00:39;5.05;;;4.45;;
80748;SDS011;70145;53.746;9.970;2023-09-07T04:03:05;6.20;;;5.60;;
80748;SDS011;70145;53.746;9.970;2023-09-07T04:05:31;4.95;;;4.45;;
80748;SDS011;70145;53.746;9.970;2023-09-07T04:07:56;5.07;;;4.57;;
80748;SDS011;70145;53.746;9.970;2023-09-07T04:10:22;6.82;;;5.07;;
80748;SDS011;70145;53.746;9.970;2023-09-07T04:12:47;5.97;;;4.45;;
80748;SDS011;70145;53.746;9.970;2023-09-07T04:15:12;5.80;;;4.73;;
80748;SDS011;70145;53.746;9.970;2023-09-07T04:17:38;5.70;;;5.10;;
80748;SDS011;70145;53.746;9.970;2023-09-07T04:20:05;5.75;;;4.95;;
80748;SDS011;70145;53.746;9.970;2023-09-07T04:22:32;7.38;;;4.43;;
80748;SDS011;70145;53.746;9.970;2023-09-07T04:24:58;6.83;;;5.03;;
80748;SDS011;70145;53.746;9.970;2023-09-07T04:27:23;5.43;;;4.93;;
80748;SDS011;70145;53.746;9.970;2023-09-07T04:29:48;5.47;;;4.83;;
80748;SDS011;70145;53.746;9.970;2023-09-07T04:32:14;5.72;;;4.95;;
80748;SDS011;70145;53.746;9.970;2023-09-07T04:34:40;5.70;;;5.10;;
80748;SDS011;70145;53.746;9.970;2023-09-07T04:37:05;6.13;;;5.13;;
80748;SDS011;70145;53.746;9.970;2023-09-07T04:39:30;6.10;;;5.10;;
80748;SDS011;70145;53.746;9.970;2023-09-07T04:41:56;6.20;;;5.30;;
80748;SDS011;70145;53.746;9.970;2023-09-07T04:44:21;6.10;;;4.77;;
80748;SDS011;70145;53.746;9.970;2023-09-07T04:46:46;5.60;;;5.00;;
80748;SDS011;70145;53.746;9.970;2023-09-07T04:49:11;5.00;;;4.33;;
80748;SDS011;70145;53.746;9.970;2023-09-07T04:51:37;5.65;;;4.88;;
80748;SDS011;70145;53.746;9.970;2023-09-07T04:54:02;6.30;;;5.63;;
80748;SDS011;70145;53.746;9.970;2023-09-07T04:56:28;7.40;;;5.35;;
80748;SDS011;70145;53.746;9.970;2023-09-07T04:58:54;6.07;;;5.20;;
80748;SDS011;70145;53.746;9.970;2023-09-07T05:01:19;5.90;;;4.70;;
80748;SDS011;70145;53.746;9.970;2023-09-07T05:03:44;6.00;;;5.00;;
80748;SDS011;70145;53.746;9.970;2023-09-07T05:06:11;5.40;;;4.90;;
80748;SDS011;70145;53.746;9.970;2023-09-07T05:08:36;5.68;;;4.80;;
80748;SDS011;70145;53.746;9.970;2023-09-07T05:11:02;6.03;;;5.43;;
80748;SDS011;70145;53.746;9.970;2023-09-07T05:13:28;5.68;;;5.07;;
80748;SDS011;70145;53.746;9.970;2023-09-07T05:15:54;5.70;;;4.88;;
80748;SDS011;70145;53.746;9.970;2023-09-07T05:18:21;5.75;;;5.15;;
80748;SDS011;70145;53.746;9.970;2023-09-07T05:20:48;5.45;;;4.57;;
80748;SDS011;70145;53.746;9.970;2023-09-07T05:23:16;5.47;;;4.85;;
80748;SDS011;70145;53.746;9.970;2023-09-07T05:25:46;4.85;;;4.35;;
80748;SDS011;70145;53.746;9.970;2023-09-07T05:30:38;5.85;;;4.63;;
80748;SDS011;70145;53.746;9.970;2023-09-07T05:33:04;6.03;;;4.50;;
80748;SDS011;70145;53.746;9.970;2023-09-07T05:35:29;6.60;;;4.70;;
80748;SDS011;70145;53.746;9.970;2023-09-07T05:37:57;4.25;;;3.80;;
80748;SDS011;70145;53.746;9.970;2023-09-07T05:40:24;6.18;;;4.53;;
80748;SDS011;70145;53.746;9.970;2023-09-07T05:42:49;6.22;;;4.57;;
80748;SDS011;70145;53.746;9.970;2023-09-07T05:45:15;5.00;;;4.28;;
80748;SDS011;70145;53.746;9.970;2023-09-07T05:47:40;4.50;;;3.77;;
80748;SDS011;70145;53.746;9.970;2023-09-07T05:50:05;4.73;;;4.27;;
80748;SDS011;70145;53.746;9.970;2023-09-07T05:52:31;6.95;;;4.40;;
80748;SDS011;70145;53.746;9.970;2023-09-07T05:54:56;5.40;;;4.57;;
80748;SDS011;70145;53.746;9.970;2023-09-07T05:57:21;5.60;;;4.33;;
80748;SDS011;70145;53.746;9.970;2023-09-07T05:59:47;5.20;;;3.97;;
80748;SDS011;70145;53.746;9.970;2023-09-07T06:02:12;6.37;;;4.50;;
80748;SDS011;70145;53.746;9.970;2023-09-07T06:04:37;5.60;;;4.03;;
80748;SDS011;70145;53.746;9.970;2023-09-07T06:07:03;5.10;;;4.17;;
80748;SDS011;70145;53.746;9.970;2023-09-07T06:09:28;5.68;;;4.22;;
80748;SDS011;70145;53.746;9.970;2023-09-07T06:11:54;4.78;;;4.22;;
80748;SDS011;70145;53.746;9.970;2023-09-07T06:14:19;6.47;;;4.07;;
80748;SDS011;70145;53.746;9.970;2023-09-07T06:16:45;5.00;;;4.50;;
80748;SDS011;70145;53.746;9.970;2023-09-07T06:19:10;4.80;;;4.30;;
80748;SDS011;70145;53.746;9.970;2023-09-07T06:21:35;6.20;;;4.63;;
80748;SDS011;70145;53.746;9.970;2023-09-07T06:24:00;4.90;;;4.40;;
80748;SDS011;70145;53.746;9.970;2023-09-07T06:26:26;4.73;;;4.30;;
80748;SDS011;70145;53.746;9.970;2023-09-07T06:28:51;5.83;;;4.03;;
80748;SDS011;70145;53.746;9.970;2023-09-07T06:31:16;6.20;;;4.90;;
80748;SDS011;70145;53.746;9.970;2023-09-07T06:33:41;4.70;;;3.70;;
80748;SDS011;70145;53.746;9.970;2023-09-07T06:36:07;5.57;;;3.57;;
80748;SDS011;70145;53.746;9.970;2023-09-07T06:38:32;3.97;;;3.57;;
80748;SDS011;70145;53.746;9.970;2023-09-07T06:40:57;3.93;;;3.53;;
80748;SDS011;70145;53.746;9.970;2023-09-07T06:43:22;5.77;;;4.30;;
80748;SDS011;70145;53.746;9.970;2023-09-07T06:45:48;5.40;;;3.97;;
80748;SDS011;70145;53.746;9.970;2023-09-07T06:48:13;4.07;;;3.60;;
80748;SDS011;70145;53.746;9.970;2023-09-07T06:50:38;5.63;;;3.53;;
80748;SDS011;70145;53.746;9.970;2023-09-07T06:53:04;6.87;;;4.30;;
80748;SDS011;70145;53.746;9.970;2023-09-07T06:55:29;4.20;;;3.77;;
80748;SDS011;70145;53.746;9.970;2023-09-07T06:57:55;4.57;;;4.00;;
80748;SDS011;70145;53.746;9.970;2023-09-07T07:00:20;3.85;;;3.42;;
80748;SDS011;70145;53.746;9.970;2023-09-07T07:02:46;4.47;;;3.63;;
80748;SDS011;70145;53.746;9.970;2023-09-07T07:05:11;4.43;;;4.03;;
80748;SDS011;70145;53.746;9.970;2023-09-07T07:07:36;4.87;;;3.73;;
80748;SDS011;70145;53.746;9.970;2023-09-07T07:10:02;3.87;;;3.23;;
80748;SDS011;70145;53.746;9.970;2023-09-07T07:12:28;4.07;;;3.30;;
80748;SDS011;70145;53.746;9.970;2023-09-07T07:14:53;5.28;;;3.58;;
80748;SDS011;70145;53.746;9.970;2023-09-07T07:17:20;4.82;;;3.92;;
80748;SDS011;70145;53.746;9.970;2023-09-07T07:19:45;4.45;;;3.72;;
80748;SDS011;70145;53.746;9.970;2023-09-07T07:22:12;4.17;;;3.70;;
80748;SDS011;70145;53.746;9.970;2023-09-07T07:24:37;3.90;;;3.50;;
80748;SDS011;70145;53.746;9.970;2023-09-07T07:27:03;4.33;;;3.70;;
80748;SDS011;70145;53.746;9.970;2023-09-07T07:29:28;4.95;;;3.67;;
80748;SDS011;70145;53.746;9.970;2023-09-07T07:31:53;5.20;;;3.75;;
80748;SDS011;70145;53.746;9.970;2023-09-07T07:34:19;4.53;;;3.40;;
80748;SDS011;70145;53.746;9.970;2023-09-07T07:36:44;3.80;;;3.47;;
80748;SDS011;70145;53.746;9.970;2023-09-07T07:39:09;5.10;;;3.67;;
80748;SDS011;70145;53.746;9.970;2023-09-07T07:41:35;3.97;;;3.17;;
80748;SDS011;70145;53.746;9.970;2023-09-07T07:44:01;4.63;;;3.85;;
80748;SDS011;70145;53.746;9.970;2023-09-07T07:46:26;3.95;;;3.35;;
80748;SDS011;70145;53.746;9.970;2023-09-07T07:48:52;4.35;;;3.22;;
80748;SDS011;70145;53.746;9.970;2023-09-07T07:51:17;5.03;;;3.70;;
80748;SDS011;70145;53.746;9.970;2023-09-07T07:53:42;4.33;;;3.40;;
80748;SDS011;70145;53.746;9.970;2023-09-07T07:56:14;3.60;;;3.27;;
80748;SDS011;70145;53.746;9.970;2023-09-07T07:58:43;4.20;;;3.63;;
80748;SDS011;70145;53.746;9.970;2023-09-07T08:01:16;4.32;;;3.53;;
80748;SDS011;70145;53.746;9.970;2023-09-07T08:03:42;5.93;;;3.50;;
80748;SDS011;70145;53.746;9.970;2023-09-07T08:06:08;5.38;;;3.95;;
80748;SDS011;70145;53.746;9.970;2023-09-07T08:08:33;4.72;;;3.70;;
80748;SDS011;70145;53.746;9.970;2023-09-07T08:10:59;3.65;;;3.35;;
80748;SDS011;70145;53.746;9.970;2023-09-07T08:13:29;4.70;;;3.38;;
80748;SDS011;70145;53.746;9.970;2023-09-07T08:15:55;4.10;;;3.35;;
80748;SDS011;70145;53.746;9.970;2023-09-07T08:18:20;5.07;;;3.23;;
80748;SDS011;70145;53.746;9.970;2023-09-07T08:21:00;4.00;;;3.17;;
80748;SDS011;70145;53.746;9.970;2023-09-07T08:23:26;4.68;;;3.45;;
80748;SDS011;70145;53.746;9.970;2023-09-07T08:25:51;3.93;;;3.50;;
80748;SDS011;70145;53.746;9.970;2023-09-07T08:28:17;3.97;;;3.60;;
80748;SDS011;70145;53.746;9.970;2023-09-07T08:30:44;4.72;;;3.53;;
80748;SDS011;70145;53.746;9.970;2023-09-07T08:33:13;8.13;;;3.47;;
80748;SDS011;70145;53.746;9.970;2023-09-07T08:35:38;4.90;;;3.57;;
80748;SDS011;70145;53.746;9.970;2023-09-07T08:40:34;4.07;;;3.33;;
80748;SDS011;70145;53.746;9.970;2023-09-07T08:43:02;3.47;;;3.17;;
80748;SDS011;70145;53.746;9.970;2023-09-07T08:45:29;3.70;;;3.17;;
80748;SDS011;70145;53.746;9.970;2023-09-07T08:47:57;5.82;;;3.60;;
80748;SDS011;70145;53.746;9.970;2023-09-07T08:50:24;3.53;;;3.22;;
80748;SDS011;70145;53.746;9.970;2023-09-07T08:52:51;4.25;;;3.13;;
80748;SDS011;70145;53.746;9.970;2023-09-07T08:55:17;4.97;;;3.20;;
80748;SDS011;70145;53.746;9.970;2023-09-07T08:57:43;6.93;;;3.65;;
80748;SDS011;70145;53.746;9.970;2023-09-07T09:00:08;4.53;;;3.50;;
80748;SDS011;70145;53.746;9.970;2023-09-07T09:02:40;4.40;;;2.80;;
80748;SDS011;70145;53.746;9.970;2023-09-07T09:05:05;3.95;;;3.55;;
80748;SDS011;70145;53.746;9.970;2023-09-07T09:07:34;4.22;;;3.70;;
80748;SDS011;70145;53.746;9.970;2023-09-07T09:10:04;5.30;;;4.00;;
80748;SDS011;70145;53.746;9.970;2023-09-07T09:12:30;3.75;;;3.30;;
80748;SDS011;70145;53.746;9.970;2023-09-07T09:14:55;4.50;;;3.20;;
80748;SDS011;70145;53.746;9.970;2023-09-07T09:17:21;3.53;;;3.23;;
80748;SDS011;70145;53.746;9.970;2023-09-07T09:19:49;8.90;;;3.83;;
80748;SDS011;70145;53.746;9.970;2023-09-07T09:22:15;7.65;;;3.83;;
80748;SDS011;70145;53.746;9.970;2023-09-07T09:24:40;3.80;;;3.17;;
80748;SDS011;70145;53.746;9.970;2023-09-07T09:27:05;5.47;;;3.40;;
80748;SDS011;70145;53.746;9.970;2023-09-07T09:29:34;4.97;;;3.35;;
80748;SDS011;70145;53.746;9.970;2023-09-07T09:32:03;4.47;;;3.08;;
80748;SDS011;70145;53.746;9.970;2023-09-07T09:34:30;3.50;;;3.20;;
80748;SDS011;70145;53.746;9.970;2023-09-07T09:36:58;4.40;;;3.47;;
80748;SDS011;70145;53.746;9.970;2023-09-07T09:39:24;3.40;;;2.95;;
80748;SDS011;70145;53.746;9.970;2023-09-07T09:41:49;3.45;;;2.95;;
80748;SDS011;70145;53.746;9.970;2023-09-07T09:44:16;3.22;;;2.92;;
80748;SDS011;70145;53.746;9.970;2023-09-07T09:46:41;5.90;;;3.17;;
80748;SDS011;70145;53.746;9.970;2023-09-07T09:49:08;4.53;;;2.67;;
80748;SDS011;70145;53.746;9.970;2023-09-07T09:51:36;3.65;;;3.20;;
80748;SDS011;70145;53.746;9.970;2023-09-07T09:54:03;3.47;;;3.13;;
80748;SDS011;70145;53.746;9.970;2023-09-07T09:56:30;4.47;;;2.92;;
80748;SDS011;70145;53.746;9.970;2023-09-07T09:58:55;5.78;;;3.72;;
80748;SDS011;70145;53.746;9.970;2023-09-07T10:01:21;2.92;;;2.63;;
80748;SDS011;70145;53.746;9.970;2023-09-07T10:03:47;3.75;;;3.28;;
80748;SDS011;70145;53.746;9.970;2023-09-07T10:06:19;3.58;;;2.78;;
80748;SDS011;70145;53.746;9.970;2023-09-07T10:08:59;4.78;;;3.28;;
80748;SDS011;70145;53.746;9.970;2023-09-07T10:11:33;5.00;;;3.75;;
80748;SDS011;70145;53.746;9.970;2023-09-07T10:16:29;4.43;;;2.80;;
80748;SDS011;70145;53.746;9.970;2023-09-07T10:19:13;5.63;;;2.80;;
80748;SDS011;70145;53.746;9.970;2023-09-07T10:21:42;3.75;;;3.15;;
80748;SDS011;70145;53.746;9.970;2023-09-07T10:24:08;4.35;;;2.50;;
80748;SDS011;70145;53.746;9.970;2023-09-07T10:26:33;3.85;;;3.55;;
80748;SDS011;70145;53.746;9.970;2023-09-07T10:28:59;2.70;;;2.50;;
80748;SDS011;70145;53.746;9.970;2023-09-07T10:31:28;3.75;;;2.85;;
80748;SDS011;70145;53.746;9.970;2023-09-07T10:33:55;3.55;;;2.70;;
80748;SDS011;70145;53.746;9.970;2023-09-07T10:38:47;3.42;;;3.13;;
80748;SDS011;70145;53.746;9.970;2023-09-07T10:41:12;3.22;;;2.90;;
80748;SDS011;70145;53.746;9.970;2023-09-07T10:43:45;3.85;;;3.45;;
80748;SDS011;70145;53.746;9.970;2023-09-07T10:46:12;4.45;;;2.80;;
80748;SDS011;70145;53.746;9.970;2023-09-07T10:48:37;3.27;;;2.63;;
80748;SDS011;70145;53.746;9.970;2023-09-07T10:51:02;3.27;;;2.73;;
80748;SDS011;70145;53.746;9.970;2023-09-07T10:53:29;3.10;;;2.83;;
80748;SDS011;70145;53.746;9.970;2023-09-07T10:58:30;4.35;;;3.08;;
80748;SDS011;70145;53.746;9.970;2023-09-07T11:00:57;3.72;;;2.58;;
80748;SDS011;70145;53.746;9.970;2023-09-07T11:03:26;3.40;;;3.13;;
80748;SDS011;70145;53.746;9.970;2023-09-07T11:06:03;4.00;;;2.63;;
80748;SDS011;70145;53.746;9.970;2023-09-07T11:08:33;2.67;;;2.35;;
80748;SDS011;70145;53.746;9.970;2023-09-07T11:10:58;5.25;;;3.15;;
80748;SDS011;70145;53.746;9.970;2023-09-07T11:13:24;3.15;;;2.88;;
80748;SDS011;70145;53.746;9.970;2023-09-07T11:15:52;4.00;;;3.00;;
80748;SDS011;70145;53.746;9.970;2023-09-07T11:18:19;6.95;;;2.83;;
80748;SDS011;70145;53.746;9.970;2023-09-07T11:20:46;2.70;;;2.25;;
80748;SDS011;70145;53.746;9.970;2023-09-07T11:23:11;2.97;;;2.38;;
80748;SDS011;70145;53.746;9.970;2023-09-07T11:25:37;3.20;;;2.30;;
80748;SDS011;70145;53.746;9.970;2023-09-07T11:28:04;2.45;;;2.25;;
80748;SDS011;70145;53.746;9.970;2023-09-07T11:30:31;2.75;;;2.30;;
80748;SDS011;70145;53.746;9.970;2023-09-07T11:33:06;5.82;;;2.70;;
80748;SDS011;70145;53.746;9.970;2023-09-07T11:35:33;4.95;;;2.33;;
80748;SDS011;70145;53.746;9.970;2023-09-07T11:37:59;3.92;;;2.30;;
80748;SDS011;70145;53.746;9.970;2023-09-07T11:40:26;5.30;;;2.22;;
80748;SDS011;70145;53.746;9.970;2023-09-07T11:42:51;3.80;;;2.40;;
80748;SDS011;70145;53.746;9.970;2023-09-07T11:45:16;4.23;;;2.57;;
80748;SDS011;70145;53.746;9.970;2023-09-07T11:47:43;2.75;;;2.45;;
80748;SDS011;70145;53.746;9.970;2023-09-07T11:50:08;2.60;;;2.20;;
80748;SDS011;70145;53.746;9.970;2023-09-07T11:52:34;2.38;;;2.17;;
80748;SDS011;70145;53.746;9.970;2023-09-07T11:54:59;2.20;;;2.00;;
80748;SDS011;70145;53.746;9.970;2023-09-07T11:57:25;2.65;;;2.42;;
80748;SDS011;70145;53.746;9.970;2023-09-07T11:59:50;2.40;;;2.10;;
80748;SDS011;70145;53.746;9.970;2023-09-07T12:02:15;3.00;;;2.30;;
80748;SDS011;70145;53.746;9.970;2023-09-07T12:04:42;3.20;;;2.17;;
80748;SDS011;70145;53.746;9.970;2023-09-07T12:07:08;3.33;;;2.20;;
80748;SDS011;70145;53.746;9.970;2023-09-07T12:09:33;2.97;;;2.10;;
80748;SDS011;70145;53.746;9.970;2023-09-07T12:11:58;3.87;;;2.07;;
80748;SDS011;70145;53.746;9.970;2023-09-07T12:14:24;2.73;;;2.53;;
80748;SDS011;70145;53.746;9.970;2023-09-07T12:16:49;3.97;;;2.20;;
80748;SDS011;70145;53.746;9.970;2023-09-07T12:19:14;2.80;;;2.40;;
80748;SDS011;70145;53.746;9.970;2023-09-07T12:21:39;3.40;;;2.17;;
80748;SDS011;70145;53.746;9.970;2023-09-07T12:24:07;2.88;;;2.33;;
80748;SDS011;70145;53.746;9.970;2023-09-07T12:26:32;3.05;;;2.15;;
80748;SDS011;70145;53.746;9.970;2023-09-07T12:28:57;3.30;;;2.30;;
80748;SDS011;70145;53.746;9.970;2023-09-07T12:31:23;3.85;;;2.33;;
80748;SDS011;70145;53.746;9.970;2023-09-07T12:33:48;3.72;;;3.42;;
80748;SDS011;70145;53.746;9.970;2023-09-07T12:36:13;3.70;;;2.97;;
80748;SDS011;70145;53.746;9.970;2023-09-07T12:38:39;4.00;;;2.45;;
80748;SDS011;70145;53.746;9.970;2023-09-07T12:41:04;2.83;;;2.60;;
80748;SDS011;70145;53.746;9.970;2023-09-07T12:43:30;2.95;;;2.25;;
80748;SDS011;70145;53.746;9.970;2023-09-07T12:45:55;2.97;;;2.67;;
80748;SDS011;70145;53.746;9.970;2023-09-07T12:48:20;2.78;;;2.35;;
80748;SDS011;70145;53.746;9.970;2023-09-07T12:50:46;3.00;;;2.67;;
80748;SDS011;70145;53.746;9.970;2023-09-07T12:53:11;3.63;;;2.63;;
80748;SDS011;70145;53.746;9.970;2023-09-07T12:55:36;3.30;;;3.00;;
80748;SDS011;70145;53.746;9.970;2023-09-07T12:58:02;2.30;;;2.10;;
80748;SDS011;70145;53.746;9.970;2023-09-07T13:00:27;2.75;;;2.38;;
80748;SDS011;70145;53.746;9.970;2023-09-07T13:02:53;2.50;;;2.28;;
80748;SDS011;70145;53.746;9.970;2023-09-07T13:05:19;2.63;;;2.30;;
80748;SDS011;70145;53.746;9.970;2023-09-07T13:07:45;2.33;;;2.13;;
80748;SDS011;70145;53.746;9.970;2023-09-07T13:10:10;5.32;;;3.05;;
80748;SDS011;70145;53.746;9.970;2023-09-07T13:12:36;3.17;;;2.72;;
80748;SDS011;70145;53.746;9.970;2023-09-07T13:15:02;3.67;;;2.65;;
80748;SDS011;70145;53.746;9.970;2023-09-07T13:17:28;3.17;;;2.42;;
80748;SDS011;70145;53.746;9.970;2023-09-07T13:19:53;5.63;;;2.90;;
80748;SDS011;70145;53.746;9.970;2023-09-07T13:22:18;3.22;;;2.92;;
80748;SDS011;70145;53.746;9.970;2023-09-07T13:24:44;3.30;;;2.57;;
80748;SDS011;70145;53.746;9.970;2023-09-07T13:27:09;2.80;;;2.43;;
80748;SDS011;70145;53.746;9.970;2023-09-07T13:29:37;4.20;;;2.65;;
80748;SDS011;70145;53.746;9.970;2023-09-07T13:32:03;3.20;;;2.08;;
80748;SDS011;70145;53.746;9.970;2023-09-07T13:34:28;4.40;;;2.53;;
80748;SDS011;70145;53.746;9.970;2023-09-07T13:36:54;3.60;;;3.13;;
80748;SDS011;70145;53.746;9.970;2023-09-07T13:39:20;4.80;;;2.72;;
80748;SDS011;70145;53.746;9.970;2023-09-07T13:41:46;3.08;;;2.85;;
80748;SDS011;70145;53.746;9.970;2023-09-07T13:44:13;3.75;;;3.00;;
80748;SDS011;70145;53.746;9.970;2023-09-07T13:46:39;3.03;;;2.72;;
80748;SDS011;70145;53.746;9.970;2023-09-07T13:49:04;3.70;;;2.20;;
80748;SDS011;70145;53.746;9.970;2023-09-07T13:51:29;3.90;;;2.60;;
80748;SDS011;70145;53.746;9.970;2023-09-07T13:54:00;4.53;;;4.13;;
80748;SDS011;70145;53.746;9.970;2023-09-07T13:56:25;4.03;;;3.53;;
80748;SDS011;70145;53.746;9.970;2023-09-07T13:58:50;2.53;;;2.33;;
80748;SDS011;70145;53.746;9.970;2023-09-07T14:01:16;3.90;;;3.03;;
80748;SDS011;70145;53.746;9.970;2023-09-07T14:03:41;3.17;;;2.70;;
80748;SDS011;70145;53.746;9.970;2023-09-07T14:06:06;4.77;;;2.80;;
80748;SDS011;70145;53.746;9.970;2023-09-07T14:08:31;3.55;;;3.25;;
80748;SDS011;70145;53.746;9.970;2023-09-07T14:10:59;3.10;;;2.75;;
80748;SDS011;70145;53.746;9.970;2023-09-07T14:13:25;4.38;;;2.63;;
80748;SDS011;70145;53.746;9.970;2023-09-07T14:15:50;3.00;;;2.70;;
80748;SDS011;70145;53.746;9.970;2023-09-07T14:18:15;3.63;;;3.20;;
80748;SDS011;70145;53.746;9.970;2023-09-07T14:20:41;3.20;;;2.50;;
80748;SDS011;70145;53.746;9.970;2023-09-07T14:23:06;2.63;;;2.40;;
80748;SDS011;70145;53.746;9.970;2023-09-07T14:25:31;2.83;;;2.42;;
80748;SDS011;70145;53.746;9.970;2023-09-07T14:27:57;2.92;;;2.28;;
80748;SDS011;70145;53.746;9.970;2023-09-07T14:30:22;3.17;;;2.65;;
80748;SDS011;70145;53.746;9.970;2023-09-07T14:32:47;2.70;;;2.50;;
80748;SDS011;70145;53.746;9.970;2023-09-07T14:35:14;3.42;;;2.42;;
80748;SDS011;70145;53.746;9.970;2023-09-07T14:37:42;2.90;;;2.28;;
80748;SDS011;70145;53.746;9.970;2023-09-07T14:40:07;2.97;;;2.67;;
80748;SDS011;70145;53.746;9.970;2023-09-07T14:42:33;3.75;;;3.28;;
80748;SDS011;70145;53.746;9.970;2023-09-07T14:44:58;3.30;;;3.00;;
80748;SDS011;70145;53.746;9.970;2023-09-07T14:47:26;2.65;;;2.40;;
80748;SDS011;70145;53.746;9.970;2023-09-07T14:49:53;3.08;;;2.67;;
80748;SDS011;70145;53.746;9.970;2023-09-07T14:52:18;2.67;;;2.10;;
80748;SDS011;70145;53.746;9.970;2023-09-07T14:54:44;3.10;;;2.58;;